Time;durP1;ratioP1;P1;durP2;ratioP2;P2;SDS_P1;SDS_P2;PMS_P1;PMS_P2;Temp;Humidity;BMP_temperature;BMP_pressure;BME280_temperature;BME280_humidity;BME280_pressure;Samples;Min_cycle;Max_cycle;Signal;HPM_P1;HPM_P2
2022/04/25 00:02:12;;;;;;;7.05;1.70;;;;;;;16.69;46.43;97493.72;4436791;32;20137;-88
2022/04/25 00:04:37;;;;;;;9.18;1.42;;;;;;;16.56;46.72;97492.44;4438273;32;20089;-86
2022/04/25 00:07:03;;;;;;;10.85;1.90;;;;;;;16.53;46.96;97493.56;4438577;32;20113;-87
2022/04/25 00:09:28;;;;;;;9.50;1.55;;;;;;;16.64;46.42;97493.34;4438441;32;20094;-86
2022/04/25 00:11:54;;;;;;;4.70;1.52;;;;;;;16.49;46.88;97493.03;4437254;32;20112;-88
2022/04/25 00:14:19;;;;;;;6.05;1.30;;;;;;;16.55;46.61;97488.94;4438089;32;20160;-88
2022/04/25 00:16:45;;;;;;;8.82;1.45;;;;;;;16.48;45.91;97487.91;4436942;32;20392;-88
2022/04/25 00:19:10;;;;;;;3.87;1.23;;;;;;;16.48;45.58;97491.38;4437038;32;20407;-87
2022/04/25 00:21:36;;;;;;;8.70;1.30;;;;;;;16.43;45.34;97487.50;4437209;32;20105;-88
2022/04/25 00:24:01;;;;;;;5.72;1.17;;;;;;;16.38;45.31;97490.62;4438352;32;20477;-87
2022/04/25 00:26:27;;;;;;;5.82;1.20;;;;;;;16.13;44.86;97492.22;4439968;32;20108;-88
2022/04/25 00:28:52;;;;;;;2.97;1.00;;;;;;;16.33;44.39;97486.75;4442132;32;20102;-88
2022/04/25 00:31:18;;;;;;;5.47;1.20;;;;;;;16.35;44.13;97477.63;4443623;32;20502;-86
2022/04/25 00:33:43;;;;;;;4.43;1.15;;;;;;;16.33;43.91;97484.94;4443445;32;20119;-87
2022/04/25 00:36:09;;;;;;;7.25;1.08;;;;;;;16.32;43.75;97483.25;4443578;32;20093;-88
2022/04/25 00:38:34;;;;;;;3.42;0.90;;;;;;;16.22;43.45;97477.19;4443173;32;20101;-88
2022/04/25 00:40:59;;;;;;;5.47;1.02;;;;;;;16.29;42.97;97479.09;4443422;32;20147;-88
2022/04/25 00:43:25;;;;;;;7.32;1.55;;;;;;;16.36;42.62;97473.16;4443300;32;20104;-88
2022/04/25 00:45:50;;;;;;;6.47;0.98;;;;;;;16.25;42.94;97475.06;4443312;32;20486;-87
2022/04/25 00:48:16;;;;;;;3.03;0.85;;;;;;;16.27;42.56;97474.91;4443456;32;20093;-85
2022/04/25 00:50:41;;;;;;;3.17;0.93;;;;;;;15.97;42.70;97474.28;4441743;32;20390;-88
2022/04/25 00:53:07;;;;;;;2.92;0.80;;;;;;;16.12;42.45;97475.41;4443075;32;20349;-88
2022/04/25 00:55:33;;;;;;;5.97;0.98;;;;;;;16.17;42.21;97474.12;4442099;32;20181;-88
2022/04/25 00:57:59;;;;;;;3.92;0.73;;;;;;;16.16;42.17;97483.94;4443106;32;20095;-87
2022/04/25 01:00:25;;;;;;;4.97;0.82;;;;;;;16.20;41.82;97474.66;4441605;32;20441;-87
2022/04/25 01:02:50;;;;;;;3.22;1.02;;;;;;;16.18;41.87;97470.50;4442270;32;20093;-87
2022/04/25 01:05:16;;;;;;;2.70;0.62;;;;;;;16.21;41.95;97480.84;4441498;32;20393;-87
2022/04/25 01:07:41;;;;;;;3.53;0.70;;;;;;;16.18;41.98;97481.13;4442738;32;20346;-88
2022/04/25 01:10:09;;;;;;;3.37;0.90;;;;;;;16.16;42.08;97486.59;4441613;32;20098;-87
2022/04/25 01:12:35;;;;;;;3.83;0.82;;;;;;;16.28;42.04;97484.53;4442637;32;20180;-89
2022/04/25 01:15:05;;;;;;;4.32;0.90;;;;;;;16.29;42.03;97488.88;4441219;32;20522;-88
2022/04/25 01:17:31;;;;;;;5.68;1.02;;;;;;;16.28;41.91;97484.53;4442562;32;20085;-88
2022/04/25 01:19:56;;;;;;;2.80;0.75;;;;;;;16.33;41.85;97484.09;4440984;32;20123;-88
2022/04/25 01:22:31;;;;;;;6.50;0.90;;;;;;;16.28;42.00;97489.84;4442396;32;20134;-88
2022/04/25 01:28:03;;;;;;;4.07;0.98;;;;;;;16.45;41.56;97488.19;4409388;32;20587;-87
2022/04/25 01:30:31;;;;;;;3.60;0.80;;;;;;;16.35;42.29;97492.75;4409166;32;20090;-88
2022/04/25 01:32:57;;;;;;;5.82;0.90;;;;;;;16.47;42.11;97480.91;4409409;32;20112;-87
2022/04/25 01:35:23;;;;;;;4.50;1.10;;;;;;;16.43;42.17;97484.84;4397934;32;20233;-92
2022/04/25 01:37:48;;;;;;;5.43;1.08;;;;;;;16.43;41.89;97484.84;4394559;32;20119;-90
2022/04/25 01:40:14;;;;;;;4.30;1.00;;;;;;;16.41;42.31;97487.66;4393002;32;20118;-87
2022/04/25 01:42:39;;;;;;;3.95;1.08;;;;;;;16.48;42.10;97482.59;4393377;32;20483;-89
2022/04/25 01:45:05;;;;;;;4.25;0.80;;;;;;;16.59;41.64;97479.69;4380509;32;20142;-89
2022/04/25 01:47:31;;;;;;;3.80;1.35;;;;;;;16.55;41.51;97477.47;4393520;32;20122;-89
2022/04/25 01:49:57;;;;;;;3.12;0.90;;;;;;;16.41;42.25;97478.84;4403839;32;20106;-91
2022/04/25 01:52:30;;;;;;;2.90;0.80;;;;;;;16.51;41.75;97479.59;4405546;32;20176;-88
2022/04/25 01:54:56;;;;;;;3.08;0.77;;;;;;;16.34;41.62;97493.72;4406350;32;20475;-88
2022/04/25 01:57:21;;;;;;;2.75;0.70;;;;;;;16.48;41.85;97487.91;4407318;32;20512;-88
2022/04/25 01:59:47;;;;;;;4.47;0.90;;;;;;;16.50;41.68;97492.06;4451374;32;20123;-88
2022/04/25 02:02:13;;;;;;;3.45;0.80;;;;;;;16.56;41.53;97489.78;4455534;32;20384;-88
2022/04/25 02:04:40;;;;;;;3.72;0.93;;;;;;;16.60;41.65;97483.19;4455861;32;20089;-89
2022/04/25 02:07:07;;;;;;;2.78;0.73;;;;;;;16.52;41.61;97481.28;4456247;32;20127;-89
2022/04/25 02:09:32;;;;;;;4.07;0.80;;;;;;;16.50;41.77;97481.44;4456415;32;20101;-89
2022/04/25 02:11:57;;;;;;;3.10;0.88;;;;;;;16.63;41.87;97480.19;4442245;32;20142;-88
2022/04/25 02:14:23;;;;;;;5.10;1.00;;;;;;;16.65;42.00;97472.88;4456223;32;20116;-88
2022/04/25 02:16:48;;;;;;;6.57;1.10;;;;;;;16.66;42.21;97480.72;4456169;32;20097;-88
2022/04/25 02:19:14;;;;;;;4.05;1.05;;;;;;;16.60;42.54;97468.06;4456271;32;20089;-88
2022/04/25 02:21:40;;;;;;;5.65;1.10;;;;;;;16.55;43.00;97474.81;4455878;32;20133;-88
2022/04/25 02:24:05;;;;;;;4.93;1.45;;;;;;;16.58;43.14;97470.03;4456299;32;20121;-89
2022/04/25 02:26:31;;;;;;;5.93;1.08;;;;;;;16.51;43.15;97464.50;4456200;32;20092;-89
2022/04/25 02:28:56;;;;;;;6.57;1.20;;;;;;;16.56;43.54;97460.53;4456146;32;20452;-90
2022/04/25 02:31:24;;;;;;;5.15;1.10;;;;;;;16.54;43.50;97460.69;4456145;32;20080;-88
2022/04/25 02:33:50;;;;;;;4.93;0.85;;;;;;;16.55;43.59;97461.53;4456170;32;20554;-89
2022/04/25 02:36:16;;;;;;;4.10;1.10;;;;;;;16.52;43.47;97466.16;4442115;32;20468;-90
2022/04/25 02:38:41;;;;;;;7.28;1.30;;;;;;;16.46;43.55;97472.09;4456214;32;20092;-86
2022/04/25 02:41:09;;;;;;;4.82;0.90;;;;;;;16.55;43.35;97469.50;4455814;32;20342;-88
2022/04/25 02:43:39;;;;;;;4.78;1.30;;;;;;;16.49;43.52;97479.75;4429285;32;20117;-89
2022/04/25 02:46:06;;;;;;;5.30;1.20;;;;;;;16.47;43.84;97480.91;4442114;32;20773;-87
2022/04/25 02:48:33;;;;;;;5.80;1.40;;;;;;;16.39;43.76;97491.47;4442119;32;20101;-87
2022/04/25 02:50:59;;;;;;;7.22;1.23;;;;;;;16.25;44.30;97506.94;4454940;32;20105;-87
2022/04/25 02:53:25;;;;;;;5.30;1.10;;;;;;;16.23;44.75;97500.94;4455910;32;20154;-87
2022/04/25 02:55:54;;;;;;;5.75;1.30;;;;;;;16.28;44.57;97511.97;4429103;32;20193;-87
2022/04/25 02:58:20;;;;;;;4.60;1.05;;;;;;;16.25;44.63;97512.25;4441741;32;20085;-88
2022/04/25 03:00:46;;;;;;;4.50;1.08;;;;;;;16.15;44.85;97523.94;4456012;32;20156;-88
2022/04/25 03:03:15;;;;;;;4.97;0.95;;;;;;;16.17;44.90;97527.28;4455933;32;20153;-89
2022/04/25 03:05:45;;;;;;;3.85;1.25;;;;;;;16.17;44.48;97530.78;4441903;32;20135;-89
2022/04/25 03:08:12;;;;;;;3.30;1.00;;;;;;;16.11;44.55;97539.37;4455999;32;20453;-88
2022/04/25 03:10:38;;;;;;;3.42;0.90;;;;;;;15.94;45.15;97526.88;4455892;32;20097;-88
2022/04/25 03:13:07;;;;;;;4.53;1.12;;;;;;;15.89;44.88;97535.28;4441836;32;20139;-89
2022/04/25 03:15:39;;;;;;;4.37;0.88;;;;;;;15.91;45.24;97538.63;4455911;32;20123;-88
2022/04/25 03:18:25;;;;;;;3.92;0.80;;;;;;;15.72;45.18;97534.19;4455975;32;20424;-89
2022/04/25 03:20:51;;;;;;;4.55;0.90;;;;;;;15.75;45.34;97544.56;4455776;32;20085;-88
2022/04/25 03:23:21;;;;;;;4.55;0.90;;;;;;;15.81;45.43;97543.16;4441640;32;20122;-88
2022/04/25 03:25:47;;;;;;;4.12;1.00;;;;;;;15.78;45.65;97531.00;4455829;32;20116;-88
2022/04/25 03:28:13;;;;;;;3.70;0.80;;;;;;;15.77;45.80;97537.28;4455960;32;20120;-87
2022/04/25 03:30:38;;;;;;;4.82;0.88;;;;;;;15.79;46.07;97535.31;4455750;32;20085;-87
2022/04/25 03:33:04;;;;;;;4.90;1.10;;;;;;;15.66;46.25;97530.31;4455668;32;20097;-87
2022/04/25 03:35:30;;;;;;;3.22;0.90;;;;;;;15.70;46.43;97533.50;4455837;32;20089;-87
2022/04/25 03:37:57;;;;;;;3.75;0.90;;;;;;;15.72;46.33;97534.19;4455722;32;20115;-87
2022/04/25 03:40:22;;;;;;;3.50;0.90;;;;;;;15.67;46.58;97537.31;4441453;32;20138;-87
2022/04/25 03:42:47;;;;;;;3.15;0.82;;;;;;;15.69;46.54;97531.84;4455673;32;20368;-88
2022/04/25 03:45:18;;;;;;;4.35;1.10;;;;;;;15.64;47.79;97534.94;4441432;32;20501;-88
2022/04/25 03:47:44;;;;;;;1.80;0.60;;;;;;;15.64;48.55;97542.91;4455842;32;20547;-88
2022/04/25 03:50:11;;;;;;;3.90;0.85;;;;;;;15.52;48.44;97541.41;4455591;32;20077;-87
2022/04/25 03:52:39;;;;;;;4.17;0.90;;;;;;;15.50;49.29;97541.56;4441534;32;20460;-87
2022/04/25 03:57:49;;;;;;;4.37;0.98;;;;;;;15.29;48.98;97539.09;4455689;32;19987;-90
2022/04/25 04:00:15;;;;;;;3.50;0.82;;;;;;;15.32;48.87;97543.31;4455413;32;20081;-89
2022/04/25 04:02:40;;;;;;;3.08;0.80;;;;;;;15.29;49.02;97541.75;4454868;32;20125;-89
2022/04/25 04:05:06;;;;;;;2.90;0.65;;;;;;;15.30;48.76;97542.62;4455524;32;20085;-89
2022/04/25 04:07:32;;;;;;;2.30;1.00;;;;;;;15.12;49.01;97542.50;4455538;32;20365;-89
2022/04/25 04:09:58;;;;;;;4.25;1.00;;;;;;;15.32;48.98;97545.97;4441353;32;20234;-88
2022/04/25 04:12:25;;;;;;;4.65;0.90;;;;;;;15.22;48.87;97547.78;4455304;32;20123;-88
2022/04/25 04:14:51;;;;;;;5.18;0.93;;;;;;;15.26;48.56;97547.37;4441415;32;20081;-89
2022/04/25 04:17:17;;;;;;;4.30;0.80;;;;;;;15.20;48.54;97553.25;4441260;32;20108;-89
2022/04/25 04:19:43;;;;;;;9.98;1.37;;;;;;;15.23;49.02;97541.50;4455317;32;20191;-89
2022/04/25 04:22:09;;;;;;;4.50;0.80;;;;;;;15.30;48.60;97550.59;4427816;32;20105;-88
2022/04/25 04:24:35;;;;;;;3.83;1.00;;;;;;;15.32;48.45;97551.28;4455259;32;20085;-88
2022/04/25 04:27:04;;;;;;;5.12;1.02;;;;;;;15.27;48.85;97561.47;4441119;32;20120;-88
2022/04/25 04:29:34;;;;;;;2.70;0.80;;;;;;;15.27;48.69;97558.81;4455239;32;20104;-89
2022/04/25 04:32:01;;;;;;;4.25;0.90;;;;;;;15.17;48.90;97564.16;4440916;32;20093;-89
2022/04/25 04:34:27;;;;;;;5.05;0.90;;;;;;;15.13;49.16;97558.28;4455156;32;20093;-89
2022/04/25 04:36:53;;;;;;;7.45;1.17;;;;;;;15.22;49.09;97555.75;4455108;32;20081;-88
2022/04/25 04:39:19;;;;;;;3.95;0.90;;;;;;;15.38;48.58;97561.31;4454993;32;20671;-89
2022/04/25 04:41:45;;;;;;;3.60;0.90;;;;;;;15.37;48.54;97558.78;4454900;32;20127;-88
2022/04/25 04:44:11;;;;;;;3.12;1.05;;;;;;;15.37;48.77;97561.44;4441014;32;20104;-89
2022/04/25 04:46:36;;;;;;;4.85;0.90;;;;;;;15.41;48.63;97561.00;4441197;32;20100;-88
2022/04/25 04:49:02;;;;;;;4.05;0.90;;;;;;;15.48;48.58;97559.44;4455263;32;20310;-89
2022/04/25 04:51:27;;;;;;;5.37;1.10;;;;;;;15.47;48.65;97562.25;4455041;32;20120;-90
2022/04/25 04:53:53;;;;;;;4.32;1.00;;;;;;;15.58;48.42;97563.91;4441069;32;20085;-87
2022/04/25 04:56:18;;;;;;;3.65;0.82;;;;;;;15.61;48.40;97560.97;4440983;32;20399;-87
2022/04/25 04:58:45;;;;;;;6.35;1.30;;;;;;;15.62;48.39;97560.78;4454981;32;20081;-87
2022/04/25 05:01:11;;;;;;;3.60;1.10;;;;;;;15.68;48.42;97559.38;4454969;32;20100;-88
2022/04/25 05:03:36;;;;;;;2.62;0.85;;;;;;;15.85;47.94;97560.47;4440790;32;20123;-88
2022/04/25 05:06:02;;;;;;;3.22;0.90;;;;;;;16.00;47.73;97569.59;4454927;32;20158;-87
2022/04/25 05:08:27;;;;;;;3.45;0.93;;;;;;;16.05;47.42;97572.66;4454755;32;20108;-86
2022/04/25 05:10:54;;;;;;;4.50;0.88;;;;;;;16.17;47.38;97572.44;4454783;32;20433;-87
2022/04/25 05:13:20;;;;;;;3.37;1.05;;;;;;;16.26;46.98;97572.41;4455441;32;20107;-88
2022/04/25 05:15:46;;;;;;;3.60;1.00;;;;;;;16.37;47.08;97570.53;4456975;32;20281;-87
2022/04/25 05:18:12;;;;;;;3.70;1.30;;;;;;;16.34;46.91;97566.34;4442857;32;20093;-89
2022/04/25 05:20:38;;;;;;;3.40;0.90;;;;;;;16.43;46.72;97567.25;4456605;32;20384;-88
2022/04/25 05:23:03;;;;;;;4.87;0.90;;;;;;;16.63;46.37;97560.81;4456429;32;20154;-89
2022/04/25 05:25:29;;;;;;;3.20;0.90;;;;;;;16.75;45.85;97571.22;4442573;32;20111;-87
2022/04/25 05:27:56;;;;;;;6.90;0.93;;;;;;;16.94;45.80;97571.09;4442583;32;20108;-88
2022/04/25 05:30:23;;;;;;;4.10;0.80;;;;;;;17.19;45.04;97571.25;4456574;32;20101;-87
2022/04/25 05:32:51;;;;;;;4.47;1.00;;;;;;;17.10;44.78;97579.19;4442638;32;20096;-89
2022/04/25 05:35:21;;;;;;;4.22;0.80;;;;;;;17.18;44.99;97569.59;4456402;32;20168;-88
2022/04/25 05:37:47;;;;;;;5.45;1.10;;;;;;;17.10;44.97;97573.88;4442408;32;20085;-88
2022/04/25 05:40:14;;;;;;;4.20;0.90;;;;;;;16.91;45.12;97576.72;4442464;32;20469;-89
2022/04/25 05:42:41;;;;;;;4.95;1.40;;;;;;;16.78;45.70;97570.91;4456436;32;20098;-88
2022/04/25 05:45:08;;;;;;;5.57;1.20;;;;;;;16.82;45.88;97582.94;4456448;32;20513;-88
2022/04/25 05:47:33;;;;;;;4.22;1.00;;;;;;;16.49;46.28;97582.59;4456506;32;20384;-88
2022/04/25 05:52:44;;;;;;;3.97;0.98;;;;;;;16.42;46.82;97579.72;4444660;32;20126;-87
2022/04/25 05:55:10;;;;;;;2.92;0.88;;;;;;;16.45;46.97;97578.56;4456467;32;20375;-88
2022/04/25 05:57:36;;;;;;;4.72;1.12;;;;;;;16.51;46.70;97589.44;4456383;32;20119;-88
2022/04/25 06:00:03;;;;;;;3.30;0.93;;;;;;;16.52;47.08;97593.75;4456424;32;20441;-87
2022/04/25 06:02:28;;;;;;;3.10;0.90;;;;;;;16.71;46.82;97595.44;4442340;32;20102;-88
2022/04/25 06:04:54;;;;;;;3.10;0.90;;;;;;;16.88;46.28;97592.97;4456271;32;20424;-87
2022/04/25 06:07:19;;;;;;;4.15;0.98;;;;;;;17.08;45.72;97586.50;4456345;32;20085;-88
2022/04/25 06:09:45;;;;;;;4.25;1.00;;;;;;;17.23;45.23;97583.25;4456242;32;20089;-88
2022/04/25 06:12:10;;;;;;;5.95;1.10;;;;;;;17.29;45.28;97588.81;4442307;32;20162;-88
2022/04/25 06:14:36;;;;;;;2.25;0.75;;;;;;;17.43;45.24;97586.56;4456276;32;20081;-89
2022/04/25 06:17:01;;;;;;;5.47;0.90;;;;;;;17.38;45.14;97595.00;4442054;32;20429;-87
2022/04/25 06:19:26;;;;;;;5.10;0.90;;;;;;;17.52;44.98;97590.97;4456327;32;20097;-87
2022/04/25 06:21:52;;;;;;;4.40;1.00;;;;;;;17.51;44.29;97588.44;4441757;32;20161;-85
2022/04/25 06:24:18;;;;;;;2.83;0.90;;;;;;;17.75;44.55;97593.06;4455999;32;20112;-84
2022/04/25 06:26:43;;;;;;;7.60;1.02;;;;;;;17.96;43.76;97588.22;4456295;32;20124;-84
2022/04/25 06:29:09;;;;;;;3.15;0.90;;;;;;;17.99;43.18;97590.56;4442111;32;20145;-84
2022/04/25 06:31:34;;;;;;;2.85;0.75;;;;;;;18.13;42.87;97596.28;4442475;32;20339;-90
2022/04/25 06:34:00;;;;;;;3.62;1.00;;;;;;;18.05;42.56;97589.09;4456210;32;20189;-83
2022/04/25 06:36:26;;;;;;;4.00;0.88;;;;;;;18.15;42.81;97589.78;4442017;32;20401;-83
2022/04/25 06:38:51;;;;;;;4.90;1.02;;;;;;;18.29;42.87;97599.00;4456284;32;20148;-83
2022/04/25 06:41:17;;;;;;;4.57;0.90;;;;;;;18.46;42.56;97597.22;4456469;32;20131;-82
2022/04/25 06:43:43;;;;;;;2.03;0.90;;;;;;;18.38;42.33;97603.38;4448039;32;20141;-84
2022/04/25 06:46:08;;;;;;;2.97;0.90;;;;;;;18.62;42.51;97605.28;4454915;32;20138;-84
2022/04/25 06:48:34;;;;;;;3.78;1.17;;;;;;;18.72;41.81;97598.97;4456249;32;20113;-86
2022/04/25 06:51:00;;;;;;;5.03;1.23;;;;;;;18.69;42.23;97608.09;4456378;32;20093;-84
2022/04/25 06:53:26;;;;;;;4.70;1.25;;;;;;;18.88;41.07;97604.34;4455587;32;20085;-84
2022/04/25 06:55:52;;;;;;;4.82;1.30;;;;;;;18.89;41.54;97600.69;4455737;32;20120;-87
2022/04/25 06:58:17;;;;;;;6.00;1.40;;;;;;;18.64;41.64;97603.28;4456047;32;20388;-82
2022/04/25 07:00:43;;;;;;;3.87;1.00;;;;;;;18.58;42.24;97605.75;4429047;32;20369;-90
2022/04/25 07:03:09;;;;;;;5.20;1.23;;;;;;;18.66;42.49;97609.28;4455977;32;20107;-90
2022/04/25 07:05:35;;;;;;;3.62;1.12;;;;;;;18.60;42.71;97620.59;4442004;32;20416;-90
2022/04/25 07:08:00;;;;;;;4.72;1.20;;;;;;;18.72;42.23;97628.31;4455992;32;20105;-90
2022/04/25 07:10:26;;;;;;;5.40;1.33;;;;;;;18.80;42.73;97623.00;4455848;32;20384;-89
2022/04/25 07:12:52;;;;;;;6.30;1.35;;;;;;;18.77;42.27;97626.78;4455940;32;20144;-89
2022/04/25 07:15:19;;;;;;;3.62;1.23;;;;;;;18.74;42.95;97626.31;4456154;32;20076;-89
2022/04/25 07:17:45;;;;;;;5.62;1.30;;;;;;;18.95;42.26;97629.38;4442097;32;20097;-90
2022/04/25 07:20:11;;;;;;;4.80;1.37;;;;;;;18.97;42.28;97630.03;4441832;32;20211;-89
2022/04/25 07:30:48;;;;;;;5.32;1.50;;;;;;;19.24;41.83;97631.53;4455976;32;20127;-90
2022/04/25 07:33:14;;;;;;;4.05;1.17;;;;;;;19.31;40.86;97637.03;4455740;32;20392;-89
2022/04/25 07:35:39;;;;;;;3.83;1.50;;;;;;;19.38;40.96;97629.22;4440973;32;20085;-90
2022/04/25 07:38:05;;;;;;;4.55;1.30;;;;;;;19.39;41.09;97625.53;4455654;32;20465;-90
2022/04/25 07:40:31;;;;;;;4.03;1.23;;;;;;;19.64;40.55;97627.19;4455757;32;20108;-90
2022/04/25 07:42:56;;;;;;;5.32;1.48;;;;;;;19.60;40.15;97633.00;4441586;32;20432;-89
2022/04/25 07:45:22;;;;;;;5.10;1.58;;;;;;;19.80;39.77;97636.19;4441567;32;20157;-91
2022/04/25 07:47:47;;;;;;;5.43;1.60;;;;;;;19.91;39.87;97635.00;4455562;32;20487;-90
2022/04/25 07:50:15;;;;;;;4.82;1.87;;;;;;;19.54;40.09;97642.53;4455761;32;20115;-90
2022/04/25 07:52:40;;;;;;;4.32;1.50;;;;;;;19.77;40.20;97645.37;4441646;32;20085;-90
2022/04/25 07:55:07;;;;;;;6.40;1.60;;;;;;;19.88;39.23;97640.69;4441609;32;20138;-90
2022/04/25 07:57:33;;;;;;;6.07;1.80;;;;;;;19.77;39.87;97649.91;4441785;32;20117;-89
2022/04/25 07:59:59;;;;;;;5.75;1.92;;;;;;;19.82;40.23;97645.72;4455868;32;20412;-90
2022/04/25 08:02:24;;;;;;;4.60;1.40;;;;;;;19.62;39.85;97652.38;4441613;32;20115;-89
2022/04/25 08:04:50;;;;;;;4.30;1.35;;;;;;;19.71;39.12;97656.72;4455718;32;20094;-90
2022/04/25 08:07:16;;;;;;;4.57;1.33;;;;;;;19.65;39.40;97647.53;4455699;32;20444;-90
2022/04/25 08:09:42;;;;;;;5.90;1.42;;;;;;;19.63;39.79;97649.53;4455789;32;20108;-89
2022/04/25 08:20:21;;;;;;;6.00;1.70;;;;;;;19.69;38.73;97650.72;4455360;32;20130;-89
2022/04/25 08:22:46;;;;;;;4.50;1.70;;;;;;;19.94;38.16;97661.37;4441571;32;20084;-94
